Haley, North Dakota
Current Conditions -  °F | °C
As of 7:53 AM on Thursday 23 Oct 2014 (Local Time) from KHEI Reporting Station
Clear Clear  
Wind Chill:   Ceiling: Unl
Heat Index:   Visibility: 10mi
Dew Point: -3°   Wind: 0mph
Humidity: 78%   Direction: NA
Pressure: 29.93"   Gusts: NA
Location:  46.1126°N, 103.12°W
Report Text: KHEI 231353Z AUTO 00000KT 10SM CLR 01/M03 A2993 RMK AO2 SLP154 T00061028
Loading
Personal Weather Stations






























Interactive Weather Map
Tropical Storm Tracking
New forecast layout! Learn more

10-Day Weather Forecast

Advertisements
Track Severe Weather on mobile